메인 페이지
METAR-TAF:

METAR-TAF

공항 :

Clovis / Cannon, 뉴멕시코, 미국

위도: 34-23N, 경도: 103-19W, 고도: 1309m

현재 날씨관측

예보는 21분 전, 23:55시(UTC)에 발표되었습니다.
남남동12kt
온도 36°C
습도 21%
기압 1014 hPa
시정: 16.1km
맑음

METAR: KCVS 132355Z 16012KT 10SM CLR 36/10 A2994 RMK AO2A SLPNO ALSTG ESTMD 10381 20377 RVRNO TSNO $

시각: 18:16 (00:16 UTC)

예보

예보는 50분 전, 23:26시(UTC)에 발표되었습니다.
예보 대상 시간: 13일 23시부터 14일 24시까지 (UTC)
남남서10kt
시정 10km 이상
고도 12000ft 상공 구름 조금
일시적
14일 00시부터 14일 02시까지 (UTC)
여러 방향의 바람 15kt, 순간 최대 풍속 25kt
고도 12000ft 상공 구름 조금, 적란운.
시계 내 뇌우
전환 중
14일 03시부터 14일 04시까지 (UTC)
남남동12kt
시정 10km 이상
고도 12000ft 상공 구름 조금
고도 10000ft 상공 구름 보통
전환 중
14일 09시부터 14일 10시까지 (UTC)
여러 방향의 바람 6kt
시정 10km 이상
고도 12000ft 상공 구름 조금
전환 중
14일 14시부터 14일 15시까지 (UTC)
10kt, 순간 최대 풍속 20kt
시정 10km 이상
고도 12000ft 상공 구름 보통
전환 중
14일 19시부터 14일 20시까지 (UTC)
남동15kt, 순간 최대 풍속 25kt
시정 10km 이상
고도 12000ft 상공 구름 많음

TAF: KCVS 132326Z 1323/1424 20010KT 9999 FEW120 QNH3000INS TEMPO 1400/1402 VRB15G25KT VCTS FEW120CB BECMG 1403/1404 15012KT 9999 NSW FEW120 QNH3000INS 9999 SCT100 QNH3002INS BECMG 1409/1410 VRB06KT 9999 FEW120 QNH3003INS BECMG 1414/1415 19010G20KT 9999 SCT120 QNH3003INS BECMG 1419/1420 14015G25KT 9999 BKN120 QNH2997INS TX38/1323Z TN19/1412Z

4,000개 이상의 공항 관측 자료 및 예보 (METAR 및 TAF 보고).

지도상에서 검색 가능한 기상관측소가 노란 점과 빨간 점으로 표시되어 있습니다.

기상관측소 명을 보려면 표시 위로 마우스를 이동하세요.

날씨 관측과 예보를 보려면 클릭하세요.

지도 변경 : 확대하려면 엑스 표시가 있는 녹색 버튼, 축소하려면 빼기 표시가 있는 녹색 버튼, 다음 페이지의 지도를 보려면 녹색 화살표를 클릭하세요.


METAR-TAF: